createdAt,value
2023-05-08T00:00:58.131Z,7.15
2023-05-08T00:03:25.531Z,6.05
2023-05-08T00:05:55.502Z,6.57
2023-05-08T00:08:22.813Z,8.10
2023-05-08T00:10:50.161Z,6.65
2023-05-08T00:13:17.442Z,6.72
2023-05-08T00:15:44.846Z,5.72
2023-05-08T00:18:12.117Z,6.15
2023-05-08T00:20:39.372Z,6.90
2023-05-08T00:23:06.609Z,5.50
2023-05-08T00:25:34.016Z,6.20
2023-05-08T00:28:01.338Z,6.82
2023-05-08T00:30:28.640Z,6.97
2023-05-08T00:32:55.984Z,6.07
2023-05-08T00:35:23.230Z,6.07
2023-05-08T00:37:50.758Z,4.93
2023-05-08T00:40:18.134Z,5.20
2023-05-08T00:42:45.402Z,6.30
2023-05-08T00:45:12.944Z,5.15
2023-05-08T00:47:40.192Z,5.68
2023-05-08T00:50:07.574Z,5.55
2023-05-08T00:52:34.829Z,4.97
2023-05-08T00:55:02.147Z,4.68
2023-05-08T00:57:29.496Z,5.97
2023-05-08T00:59:57.197Z,5.10
2023-05-08T01:02:24.550Z,5.40
2023-05-08T01:04:52.309Z,5.07
2023-05-08T01:07:19.865Z,5.50
2023-05-08T01:09:47.177Z,5.55
2023-05-08T01:12:14.435Z,5.03
2023-05-08T01:14:42.026Z,4.43
2023-05-08T01:17:09.218Z,4.72
2023-05-08T01:19:36.461Z,5.05
2023-05-08T01:22:03.756Z,5.95
2023-05-08T01:24:31.371Z,5.10
2023-05-08T01:26:58.643Z,4.93
2023-05-08T01:29:26.141Z,6.00
2023-05-08T01:31:53.346Z,4.97
2023-05-08T01:34:20.649Z,5.43
2023-05-08T01:36:47.842Z,5.80
2023-05-08T01:39:15.105Z,5.28
2023-05-08T01:41:43.662Z,5.68
2023-05-08T01:44:11.751Z,4.78
2023-05-08T01:46:39.088Z,5.00
2023-05-08T01:49:06.329Z,4.78
2023-05-08T01:51:33.644Z,4.95
2023-05-08T01:54:01.092Z,5.45
2023-05-08T01:56:28.366Z,4.68
2023-05-08T01:58:55.588Z,4.35
2023-05-08T02:01:23.026Z,4.25
2023-05-08T02:03:50.478Z,4.22
2023-05-08T02:06:17.952Z,4.65
2023-05-08T02:08:46.416Z,4.07
2023-05-08T02:11:13.815Z,4.72
2023-05-08T02:13:41.062Z,4.03
2023-05-08T02:16:08.374Z,4.50
2023-05-08T02:18:35.653Z,5.47
2023-05-08T02:21:02.866Z,4.07
2023-05-08T02:23:30.121Z,5.03
2023-05-08T02:25:57.635Z,4.47
2023-05-08T02:28:25.021Z,4.53
2023-05-08T02:30:52.289Z,4.32
2023-05-08T02:33:19.570Z,4.38
2023-05-08T02:35:47.044Z,4.65
2023-05-08T02:38:14.258Z,4.85
2023-05-08T02:40:41.483Z,4.05
2023-05-08T02:43:08.850Z,4.07
2023-05-08T02:45:36.062Z,3.40
2023-05-08T02:48:03.524Z,4.93
2023-05-08T02:50:30.882Z,3.80
2023-05-08T02:52:58.125Z,4.07
2023-05-08T02:55:25.303Z,4.75
2023-05-08T02:57:52.602Z,4.13
2023-05-08T03:00:20.373Z,4.25
2023-05-08T04:26:34.514Z,9.60
2023-05-08T04:29:02.671Z,6.90
2023-05-08T04:31:30.652Z,8.20
2023-05-08T04:33:58.200Z,7.72
2023-05-08T04:36:29.463Z,10.27
2023-05-08T04:38:59.164Z,4.93
2023-05-08T04:41:27.121Z,6.45
2023-05-08T04:43:54.523Z,5.10
2023-05-08T04:46:21.823Z,4.57
2023-05-08T04:48:49.114Z,5.43
2023-05-08T04:51:16.467Z,4.10
2023-05-08T04:53:44.130Z,4.97
2023-05-08T04:56:11.716Z,4.88
2023-05-08T04:58:39.069Z,3.83
2023-05-08T05:01:06.515Z,3.80
2023-05-08T05:03:34.082Z,3.90
2023-05-08T05:06:01.453Z,3.70
2023-05-08T05:08:28.790Z,3.67
2023-05-08T05:10:57.262Z,3.30
2023-05-08T05:13:24.644Z,4.13
2023-05-08T05:15:54.520Z,2.88
2023-05-08T05:18:23.011Z,2.95
2023-05-08T05:20:51.613Z,2.70
2023-05-08T05:23:19.125Z,2.90
2023-05-08T05:25:46.535Z,2.40
2023-05-08T05:28:14.155Z,3.55
2023-05-08T05:30:41.402Z,2.70
2023-05-08T05:33:09.011Z,3.15
2023-05-08T05:35:36.864Z,2.70
2023-05-08T05:38:05.481Z,2.95
2023-05-08T05:40:32.791Z,2.90
2023-05-08T05:43:00.123Z,3.25
2023-05-08T05:45:27.647Z,4.15
2023-05-08T05:47:55.524Z,4.32
2023-05-08T05:50:26.778Z,3.40
2023-05-08T05:52:55.378Z,3.20
2023-05-08T05:55:22.894Z,3.55
2023-05-08T05:57:50.224Z,3.70
2023-05-08T06:00:17.788Z,3.45
2023-05-08T06:02:52.340Z,3.47
2023-05-08T06:05:19.781Z,3.75
2023-05-08T06:07:47.081Z,3.97
2023-05-08T06:10:14.397Z,3.72
2023-05-08T06:12:42.075Z,3.72
2023-05-08T06:15:11.349Z,4.13
2023-05-08T06:17:38.904Z,3.67
2023-05-08T06:20:06.620Z,4.15
2023-05-08T06:22:34.114Z,3.88
2023-05-08T06:25:01.460Z,4.13
2023-05-08T06:27:28.684Z,4.72
2023-05-08T06:29:55.934Z,3.85
2023-05-08T06:32:23.238Z,4.55
2023-05-08T06:34:50.556Z,3.80
2023-05-08T06:37:17.776Z,4.53
2023-05-08T06:39:44.993Z,3.63
2023-05-08T06:42:12.205Z,3.38
2023-05-08T06:44:40.842Z,3.33
2023-05-08T06:47:08.562Z,2.88
2023-05-08T06:49:35.802Z,4.03
2023-05-08T06:52:03.194Z,3.40
2023-05-08T06:54:30.552Z,2.90
2023-05-08T06:56:57.822Z,2.72
2023-05-08T06:59:25.162Z,3.97
2023-05-08T07:01:52.434Z,2.78
2023-05-08T07:04:19.897Z,4.05
2023-05-08T07:06:47.587Z,2.33
2023-05-08T07:09:15.227Z,2.80
2023-05-08T07:11:42.446Z,4.05
2023-05-08T07:14:09.701Z,2.90
2023-05-08T07:16:37.878Z,2.95
2023-05-08T07:19:05.167Z,3.70
2023-05-08T07:21:32.405Z,3.38
2023-05-08T07:23:59.627Z,4.15
2023-05-08T07:26:26.803Z,4.22
2023-05-08T07:28:54.327Z,3.42
2023-05-08T07:31:21.748Z,3.00
2023-05-08T07:33:49.050Z,2.83
2023-05-08T07:36:16.240Z,2.92
2023-05-08T07:38:43.450Z,3.00
2023-05-08T07:41:10.771Z,3.92
2023-05-08T07:43:38.191Z,2.35
2023-05-08T07:46:05.559Z,3.10
2023-05-08T07:48:32.772Z,2.45
2023-05-08T07:50:59.970Z,2.97
2023-05-08T07:53:27.529Z,2.83
2023-05-08T07:55:54.728Z,2.28
2023-05-08T07:58:23.823Z,2.55
2023-05-08T08:00:51.350Z,3.03
2023-05-08T08:03:18.821Z,2.28
2023-05-08T08:05:46.398Z,2.58
2023-05-08T08:08:14.223Z,2.50
2023-05-08T08:10:41.763Z,2.35
2023-05-08T08:13:09.139Z,2.40
2023-05-08T08:15:36.459Z,2.42
2023-05-08T08:18:03.746Z,2.30
2023-05-08T08:20:31.041Z,2.65
2023-05-08T08:22:58.656Z,2.30
2023-05-08T08:25:25.976Z,2.30
2023-05-08T08:27:53.326Z,2.30
2023-05-08T08:30:20.570Z,2.65
2023-05-08T08:32:47.875Z,2.75
2023-05-08T08:35:15.435Z,2.47
2023-05-08T08:37:43.304Z,3.92
2023-05-08T08:40:10.500Z,2.92
2023-05-08T08:42:37.865Z,2.92
2023-05-08T08:45:05.104Z,2.20
2023-05-08T08:47:32.469Z,2.25
2023-05-08T08:49:59.805Z,2.58
2023-05-08T08:52:28.345Z,2.22
2023-05-08T08:54:55.558Z,1.90
2023-05-08T08:57:24.770Z,2.20
2023-05-08T08:59:52.115Z,1.95
2023-05-08T09:02:19.623Z,2.20
2023-05-08T09:04:46.930Z,1.88
2023-05-08T09:07:14.151Z,1.60
2023-05-08T09:09:41.782Z,1.67
2023-05-08T09:12:09.096Z,1.63
2023-05-08T09:14:36.311Z,1.20
2023-05-08T09:17:03.644Z,1.20
2023-05-08T09:19:30.997Z,1.10
2023-05-08T09:21:58.264Z,0.82
2023-05-08T09:24:29.067Z,1.10
2023-05-08T09:26:59.937Z,0.88
2023-05-08T09:29:27.197Z,0.80
2023-05-08T09:31:54.443Z,0.82
2023-05-08T09:34:21.862Z,1.05
2023-05-08T09:36:49.020Z,0.80
2023-05-08T09:39:16.226Z,0.70
2023-05-08T09:41:43.505Z,0.93
2023-05-08T09:44:10.867Z,0.82
2023-05-08T09:46:38.036Z,0.75
2023-05-08T09:49:06.275Z,0.70
2023-05-08T09:51:33.681Z,0.52
2023-05-08T09:54:04.089Z,0.98
2023-05-08T09:56:31.432Z,0.55
2023-05-08T09:58:58.628Z,0.60
2023-05-08T10:01:25.892Z,0.68
2023-05-08T10:03:53.209Z,0.63
2023-05-08T10:06:20.544Z,0.98
2023-05-08T10:08:48.493Z,1.17
2023-05-08T10:11:18.849Z,0.80
2023-05-08T10:13:46.229Z,0.73
2023-05-08T10:16:13.554Z,0.73
2023-05-08T10:18:41.454Z,1.08
2023-05-08T10:21:09.370Z,0.82
2023-05-08T10:23:36.673Z,0.85
2023-05-08T10:26:03.917Z,0.82
2023-05-08T10:28:31.129Z,0.75
2023-05-08T10:30:58.338Z,0.75
2023-05-08T10:33:26.176Z,0.70
2023-05-08T10:35:53.323Z,0.73
2023-05-08T10:38:20.642Z,1.17
2023-05-08T10:40:48.789Z,0.75
2023-05-08T10:43:16.082Z,0.60
2023-05-08T10:45:43.354Z,0.77
2023-05-08T10:48:10.932Z,0.52
2023-05-08T10:50:38.210Z,0.80
2023-05-08T10:53:05.747Z,0.65
2023-05-08T10:55:33.587Z,1.10
2023-05-08T10:58:00.850Z,0.60
2023-05-08T11:00:28.119Z,0.70
2023-05-08T11:02:56.258Z,1.33
2023-05-08T11:05:23.652Z,0.80
2023-05-08T11:07:50.866Z,0.82
2023-05-08T11:10:18.696Z,0.50
2023-05-08T11:12:45.938Z,0.40
2023-05-08T11:15:13.322Z,0.52
2023-05-08T11:17:46.386Z,0.70
2023-05-08T11:20:14.388Z,0.70
2023-05-08T11:22:41.714Z,0.60
2023-05-08T11:25:09.038Z,0.80
2023-05-08T11:27:36.192Z,0.85
2023-05-08T11:30:03.479Z,0.57
2023-05-08T11:32:30.724Z,0.40
2023-05-08T11:34:58.017Z,0.60
2023-05-08T11:37:25.631Z,0.70
2023-05-08T11:39:52.894Z,0.30
2023-05-08T11:42:21.123Z,0.30
2023-05-08T11:44:49.808Z,0.50
2023-05-08T11:47:17.206Z,0.43
2023-05-08T11:49:44.609Z,0.40
2023-05-08T11:52:11.898Z,0.50
2023-05-08T11:54:39.162Z,0.50
2023-05-08T11:57:06.381Z,0.90
2023-05-08T11:59:33.875Z,0.80
2023-05-08T12:02:08.548Z,0.70
2023-05-08T12:04:36.637Z,0.90
2023-05-08T12:07:03.884Z,0.77
2023-05-08T12:09:31.167Z,0.50
2023-05-08T12:11:58.637Z,0.93
2023-05-08T12:14:26.007Z,1.42
2023-05-08T12:16:53.237Z,0.77
2023-05-08T12:19:20.418Z,0.60
2023-05-08T12:21:51.579Z,0.82
2023-05-08T12:24:23.038Z,0.60
2023-05-08T12:26:50.926Z,0.60
2023-05-08T12:29:18.293Z,0.50
2023-05-08T12:31:45.597Z,0.40
2023-05-08T12:34:12.889Z,0.52
2023-05-08T12:36:40.286Z,0.70
2023-05-08T12:39:07.517Z,0.40
2023-05-08T12:41:34.740Z,0.40
2023-05-08T12:44:02.000Z,0.60
2023-05-08T12:46:29.702Z,0.50
2023-05-08T12:48:56.923Z,0.65
2023-05-08T12:51:24.187Z,0.60
2023-05-08T12:53:51.358Z,0.45
2023-05-08T12:56:18.652Z,0.43
2023-05-08T12:58:48.899Z,0.47
2023-05-08T13:01:17.140Z,0.40
2023-05-08T13:03:47.064Z,0.25
2023-05-08T13:06:18.068Z,0.20
2023-05-08T13:08:45.430Z,0.30
2023-05-08T13:11:12.672Z,0.60
2023-05-08T13:13:39.850Z,0.35
2023-05-08T13:16:07.237Z,0.30
2023-05-08T13:18:36.732Z,0.95
2023-05-08T13:21:04.215Z,0.32
2023-05-08T13:23:31.427Z,0.57
2023-05-08T13:25:58.725Z,0.17
2023-05-08T13:28:25.954Z,0.30
2023-05-08T13:30:53.345Z,0.30
2023-05-08T13:33:20.566Z,0.20
2023-05-08T13:35:47.792Z,0.20
2023-05-08T13:38:15.079Z,0.32
2023-05-08T13:40:42.335Z,0.43
2023-05-08T13:43:09.558Z,0.57
2023-05-08T13:45:36.851Z,0.52
2023-05-08T13:48:04.242Z,0.50
2023-05-08T13:50:31.507Z,0.57
2023-05-08T13:52:58.775Z,0.30
2023-05-08T13:55:26.131Z,0.30
2023-05-08T13:57:53.354Z,0.30
2023-05-08T14:00:20.662Z,0.50
2023-05-08T14:02:50.016Z,0.65
2023-05-08T14:05:18.874Z,0.63
2023-05-08T14:07:46.722Z,0.50
2023-05-08T14:10:14.005Z,0.50
2023-05-08T14:12:41.347Z,0.43
2023-05-08T14:15:08.654Z,0.47
2023-05-08T14:17:35.894Z,0.50
2023-05-08T14:20:03.148Z,0.95
2023-05-08T14:22:30.445Z,0.93
2023-05-08T14:24:57.686Z,0.60
2023-05-08T14:27:24.891Z,0.50
2023-05-08T14:29:53.742Z,0.57
2023-05-08T14:32:21.129Z,0.60
2023-05-08T14:34:48.530Z,0.88
2023-05-08T14:37:17.631Z,0.73
2023-05-08T14:39:45.571Z,0.40
2023-05-08T14:44:42.956Z,0.68
2023-05-08T14:47:10.292Z,0.60
2023-05-08T14:49:38.754Z,0.68
2023-05-08T14:52:06.294Z,0.32
2023-05-08T14:54:33.861Z,0.30
2023-05-08T14:57:01.309Z,0.55
2023-05-08T14:59:28.616Z,0.57
2023-05-08T15:01:55.894Z,1.00
2023-05-08T15:04:23.419Z,0.55
2023-05-08T15:06:50.960Z,1.15
2023-05-08T15:09:18.379Z,1.65
2023-05-08T15:11:45.651Z,1.48
2023-05-08T15:14:14.368Z,1.10
2023-05-08T15:16:41.619Z,1.65
2023-05-08T15:19:09.752Z,1.02
2023-05-08T15:21:37.060Z,2.60
2023-05-08T15:24:04.368Z,3.22
2023-05-08T15:26:31.554Z,2.22
2023-05-08T15:28:58.986Z,2.28
2023-05-08T15:31:26.238Z,2.70
2023-05-08T15:33:53.520Z,3.25
2023-05-08T15:36:20.750Z,3.30
2023-05-08T15:38:49.190Z,3.42
2023-05-08T15:41:16.408Z,4.50
2023-05-08T15:43:45.458Z,3.72
2023-05-08T15:46:12.868Z,3.20
2023-05-08T15:48:40.215Z,2.63
2023-05-08T15:51:08.880Z,4.00
2023-05-08T15:53:36.157Z,2.30
2023-05-08T15:56:03.378Z,3.80
2023-05-08T15:58:30.688Z,4.13
2023-05-08T16:00:58.391Z,3.58
2023-05-08T16:03:25.747Z,3.50
2023-05-08T16:05:53.144Z,3.40
2023-05-08T16:08:20.360Z,3.95
2023-05-08T16:10:48.567Z,3.33
2023-05-08T16:13:16.466Z,3.30
2023-05-08T16:15:43.984Z,2.92
2023-05-08T16:18:13.706Z,3.38
2023-05-08T16:20:41.709Z,4.72
2023-05-08T16:23:08.928Z,4.55
2023-05-08T16:25:36.204Z,4.07
2023-05-08T16:28:03.550Z,4.13
2023-05-08T16:30:30.813Z,4.57
2023-05-08T16:32:58.067Z,4.00
2023-05-08T16:35:25.462Z,3.75
2023-05-08T16:37:52.812Z,4.07
2023-05-08T16:40:20.131Z,3.95
2023-05-08T16:42:47.502Z,5.32
2023-05-08T16:45:15.034Z,5.03
2023-05-08T16:47:42.473Z,5.00
2023-05-08T16:50:09.864Z,6.60
2023-05-08T16:52:37.135Z,5.32
2023-05-08T16:55:04.315Z,6.30
2023-05-08T16:57:31.602Z,7.32
2023-05-08T16:59:58.852Z,8.73
2023-05-08T17:02:26.224Z,6.90
2023-05-08T17:04:53.517Z,5.00
2023-05-08T17:07:20.789Z,4.68
2023-05-08T17:09:52.967Z,5.00
2023-05-08T17:12:20.858Z,7.05
2023-05-08T17:14:48.117Z,5.07
2023-05-08T17:17:15.458Z,9.25
2023-05-08T17:19:45.806Z,6.68
2023-05-08T17:22:13.208Z,7.30
2023-05-08T17:24:40.583Z,6.05
2023-05-08T17:27:08.224Z,6.93
2023-05-08T17:29:35.600Z,5.10
2023-05-08T17:32:02.914Z,6.25
2023-05-08T17:34:30.264Z,6.55
2023-05-08T17:36:57.532Z,7.55
2023-05-08T17:39:24.876Z,8.50
2023-05-08T17:41:52.239Z,4.47
2023-05-08T17:44:19.460Z,6.78
2023-05-08T17:46:46.734Z,7.20
2023-05-08T17:49:14.782Z,6.03
2023-05-08T17:51:43.133Z,4.85
2023-05-08T17:54:10.436Z,6.28
2023-05-08T17:56:37.679Z,5.90
2023-05-08T17:59:04.958Z,5.40
2023-05-08T18:01:32.415Z,5.63
2023-05-08T18:03:59.763Z,7.20
2023-05-08T18:06:27.028Z,6.53
2023-05-08T18:08:54.432Z,12.32
2023-05-08T18:11:21.971Z,6.53
2023-05-08T18:13:49.313Z,8.93
2023-05-08T18:16:16.581Z,10.07
2023-05-08T18:18:43.905Z,6.78
2023-05-08T18:21:11.167Z,6.53
2023-05-08T18:23:38.465Z,6.53
2023-05-08T18:26:05.732Z,5.88
2023-05-08T18:28:32.957Z,6.78
2023-05-08T18:31:00.280Z,8.45
2023-05-08T18:33:27.914Z,6.50
2023-05-08T18:35:55.811Z,5.80
2023-05-08T18:38:23.128Z,6.95
2023-05-08T18:40:50.882Z,8.18
2023-05-08T18:43:18.117Z,6.97
2023-05-08T18:45:45.460Z,6.55
2023-05-08T18:48:12.805Z,7.70
2023-05-08T18:50:40.071Z,5.82
2023-05-08T18:53:07.312Z,2.05
2023-05-08T18:55:34.573Z,4.13
2023-05-08T18:58:01.878Z,4.80
2023-05-08T19:00:29.094Z,4.38
2023-05-08T19:02:56.485Z,2.75
2023-05-08T19:05:23.768Z,3.45
2023-05-08T19:07:50.984Z,2.50
2023-05-08T19:10:18.243Z,2.35
2023-05-08T19:12:45.676Z,1.95
2023-05-08T19:15:14.079Z,2.05
2023-05-08T19:17:41.816Z,1.60
2023-05-08T19:20:09.174Z,1.88
2023-05-08T19:22:36.403Z,1.98
2023-05-08T19:25:03.757Z,1.38
2023-05-08T19:27:32.187Z,1.50
2023-05-08T19:29:59.441Z,1.52
2023-05-08T19:32:27.861Z,1.25
2023-05-08T19:34:57.590Z,3.03
2023-05-08T19:37:24.912Z,3.38
2023-05-08T19:39:52.114Z,1.60
2023-05-08T19:42:19.388Z,1.75
2023-05-08T19:44:46.642Z,2.05
2023-05-08T19:47:13.854Z,1.55
2023-05-08T19:49:41.093Z,3.13
2023-05-08T19:52:08.387Z,1.70
2023-05-08T19:54:35.586Z,1.88
2023-05-08T19:57:02.876Z,1.67
2023-05-08T19:59:30.114Z,2.00
2023-05-08T20:01:58.070Z,1.60
2023-05-08T20:04:25.395Z,1.40
2023-05-08T20:06:52.555Z,1.73
2023-05-08T20:09:20.074Z,1.98
2023-05-08T20:11:47.360Z,2.35
2023-05-08T20:14:14.618Z,1.20
2023-05-08T20:16:42.065Z,1.42
2023-05-08T20:19:09.598Z,1.38
2023-05-08T20:21:36.898Z,1.60
2023-05-08T20:24:04.138Z,1.65
2023-05-08T20:26:32.441Z,1.38
2023-05-08T20:28:59.776Z,1.75
2023-05-08T20:31:27.886Z,2.33
2023-05-08T20:33:55.231Z,2.22
2023-05-08T20:36:22.561Z,2.35
2023-05-08T20:38:49.801Z,1.95
2023-05-08T20:41:17.026Z,2.08
2023-05-08T20:43:44.290Z,1.30
2023-05-08T20:46:11.545Z,1.75
2023-05-08T20:48:38.879Z,1.50
2023-05-08T20:51:06.234Z,1.73
2023-05-08T20:53:33.473Z,1.50
2023-05-08T20:56:00.813Z,2.67
2023-05-08T20:58:28.062Z,2.03
2023-05-08T21:00:55.354Z,3.35
2023-05-08T21:03:23.098Z,2.22
2023-05-08T21:05:50.399Z,3.53
2023-05-08T21:08:17.562Z,2.58
2023-05-08T21:10:44.852Z,3.10
2023-05-08T21:13:12.122Z,2.55
2023-05-08T21:15:39.419Z,4.07
2023-05-08T21:18:07.201Z,4.05
2023-05-08T21:20:34.692Z,7.05
2023-05-08T21:23:01.954Z,4.20
2023-05-08T21:25:29.277Z,4.38
2023-05-08T21:27:56.486Z,4.47
2023-05-08T21:30:23.762Z,5.43
2023-05-08T21:32:51.116Z,4.63
2023-05-08T21:35:18.443Z,4.40
2023-05-08T21:37:45.701Z,4.60
2023-05-08T21:40:12.965Z,5.75
2023-05-08T21:42:40.830Z,5.13
2023-05-08T21:45:08.174Z,5.25
2023-05-08T21:47:35.494Z,5.43
2023-05-08T21:50:03.034Z,5.93
2023-05-08T21:52:30.409Z,5.30
2023-05-08T21:54:57.743Z,5.00
2023-05-08T21:57:25.044Z,6.38
2023-05-08T21:59:52.310Z,5.28
2023-05-08T22:02:20.249Z,4.85
2023-05-08T22:04:47.551Z,5.65
2023-05-08T22:07:14.906Z,6.35
2023-05-08T22:09:42.150Z,5.45
2023-05-08T22:12:09.452Z,5.97
2023-05-08T22:14:36.707Z,5.13
2023-05-08T22:17:04.022Z,4.72
2023-05-08T22:19:31.285Z,5.05
2023-05-08T22:21:58.630Z,5.40
2023-05-08T22:24:25.887Z,6.05
2023-05-08T22:26:53.105Z,5.28
2023-05-08T22:29:20.307Z,5.30
2023-05-08T22:31:48.101Z,4.85
2023-05-08T22:34:15.292Z,4.35
2023-05-08T22:36:42.540Z,4.85
2023-05-08T22:39:13.009Z,5.32
2023-05-08T22:41:40.524Z,5.15
2023-05-08T22:44:07.811Z,3.60
2023-05-08T22:46:35.140Z,4.55
2023-05-08T22:49:02.771Z,4.72
2023-05-08T22:51:30.504Z,4.88
2023-05-08T22:53:57.723Z,4.05
2023-05-08T22:56:24.983Z,4.65
2023-05-08T22:58:54.729Z,4.38
2023-05-08T23:01:22.026Z,3.92
2023-05-08T23:03:49.211Z,3.63
2023-05-08T23:06:16.502Z,2.90
2023-05-08T23:08:43.664Z,3.05
2023-05-08T23:11:11.031Z,3.80
2023-05-08T23:13:38.265Z,3.85
2023-05-08T23:16:05.593Z,4.65
2023-05-08T23:18:34.146Z,1.95
2023-05-08T23:21:01.452Z,3.22
2023-05-08T23:23:28.750Z,2.95
2023-05-08T23:25:56.034Z,3.08
2023-05-08T23:28:23.292Z,5.38
2023-05-08T23:30:50.586Z,2.65
2023-05-08T23:33:17.952Z,2.50
2023-05-08T23:35:45.595Z,2.78
2023-05-08T23:38:12.863Z,2.70
2023-05-08T23:40:40.190Z,2.33
2023-05-08T23:43:07.416Z,2.92
2023-05-08T23:45:34.661Z,3.53
2023-05-08T23:48:02.141Z,2.65
2023-05-08T23:50:29.462Z,1.83
2023-05-08T23:52:56.670Z,2.33
2023-05-08T23:55:23.897Z,2.90
2023-05-08T23:57:51.893Z,2.25
